メインページ
METAR-TAF:

METAR-TAF

空港 :

Guaymas, メキシコ

緯度: 27-58N, 経度: 110-56W, 海抜: 27m

現時点の気象観測

当レポートは3時間46分前の01:41(UTC)に作成
南/南西の風 10kt
気温 32°C
湿度 29%
気圧 1006 hPa
視程: 16.1km
晴天

METAR: MMGM 200141Z 20010KT 10SM SKC 32/12 A2972

時間: 22:27 (05:27 UTC)

予報

当レポートは13時間6分前の16:21(UTC)に作成
予報は19日の 18時(UTC)から 20日の 18時(UTC)まで有効
南/南西の風 10kt
視程: 10km
高度2000ftの雲は散在している
20日の 0300時(UTC)から
南/南西の風 5kt
視程: 10km
高度2000ftの雲は散在している
高度10000ftの雲は散在している
20日の 1700時(UTC)から
南/南西の風 10kt
視程: 10km
晴天

TAF: MMGM 191621Z 1918/2018 20010KT P6SM SCT020 FM200300 20005KT P6SM SCT020 SCT100 FM201700 20010KT P6SM SKC

4,000以上の空港の気象観測と天気予報(METAR報とTAF報)

利用可能な観測所は地図上に黄色い丸と赤い丸で示す。

丸の上にカーソルを重ねると観測所名を参照できる。

次にクリックすると気象観測と天気予報を参照できる。

マップの切り替え:黒色「×」印の緑ボタンをクリックして拡大、「-」印の緑ボタンをクリックして縮小、緑色の三角印をクリックして隣りの地図に切り替え


METAR-TAF: